sensor_id;sensor_type;location;lat;lon;timestamp;pressure;altitude;pressure_sealevel;temperature;humidity
61506;BME280;47366;51.916;4.574;2022-07-21T00:02:25;101790.78;;;21.32;64.23
61506;BME280;47366;51.916;4.574;2022-07-21T00:04:50;101782.94;;;21.28;64.61
61506;BME280;47366;51.916;4.574;2022-07-21T00:07:16;101785.69;;;21.28;65.01
61506;BME280;47366;51.916;4.574;2022-07-21T00:09:41;101792.22;;;21.27;64.19
61506;BME280;47366;51.916;4.574;2022-07-21T00:12:07;101794.38;;;21.23;65.19
61506;BME280;47366;51.916;4.574;2022-07-21T00:14:32;101784.34;;;21.12;65.73
61506;BME280;47366;51.916;4.574;2022-07-21T00:16:58;101790.03;;;21.20;64.85
61506;BME280;47366;51.916;4.574;2022-07-21T00:19:23;101786.09;;;21.23;64.43
61506;BME280;47366;51.916;4.574;2022-07-21T00:21:48;101778.28;;;21.28;64.72
61506;BME280;47366;51.916;4.574;2022-07-21T00:24:14;101781.50;;;21.33;64.24
61506;BME280;47366;51.916;4.574;2022-07-21T00:26:39;101775.41;;;21.30;65.23
61506;BME280;47366;51.916;4.574;2022-07-21T00:29:05;101787.72;;;21.35;64.62
61506;BME280;47366;51.916;4.574;2022-07-21T00:31:30;101777.22;;;21.40;64.29
61506;BME280;47366;51.916;4.574;2022-07-21T00:33:56;101775.53;;;21.38;64.39
61506;BME280;47366;51.916;4.574;2022-07-21T00:36:21;101771.59;;;21.21;64.68
61506;BME280;47366;51.916;4.574;2022-07-21T00:38:47;101773.34;;;21.22;65.46
61506;BME280;47366;51.916;4.574;2022-07-21T00:41:13;101773.19;;;21.24;64.90
61506;BME280;47366;51.916;4.574;2022-07-21T00:43:38;101773.66;;;21.29;64.56
61506;BME280;47366;51.916;4.574;2022-07-21T00:46:04;101767.25;;;21.28;64.76
61506;BME280;47366;51.916;4.574;2022-07-21T00:48:29;101766.41;;;21.28;65.58
61506;BME280;47366;51.916;4.574;2022-07-21T00:50:55;101781.19;;;21.27;65.48
61506;BME280;47366;51.916;4.574;2022-07-21T00:53:20;101770.91;;;21.19;65.03
61506;BME280;47366;51.916;4.574;2022-07-21T00:55:46;101776.97;;;21.23;65.08
61506;BME280;47366;51.916;4.574;2022-07-21T00:58:14;101777.53;;;21.16;65.95
61506;BME280;47366;51.916;4.574;2022-07-21T01:00:40;101777.69;;;21.15;65.37
61506;BME280;47366;51.916;4.574;2022-07-21T01:03:05;101784.66;;;21.19;66.72
61506;BME280;47366;51.916;4.574;2022-07-21T01:05:31;101780.88;;;21.20;65.63
61506;BME280;47366;51.916;4.574;2022-07-21T01:07:57;101774.50;;;21.19;66.39
61506;BME280;47366;51.916;4.574;2022-07-21T01:10:27;101779.16;;;21.19;66.11
61506;BME280;47366;51.916;4.574;2022-07-21T01:12:53;101779.09;;;21.09;66.44
61506;BME280;47366;51.916;4.574;2022-07-21T01:15:20;101780.44;;;21.15;65.81
61506;BME280;47366;51.916;4.574;2022-07-21T01:17:46;101772.31;;;21.13;65.68
61506;BME280;47366;51.916;4.574;2022-07-21T01:20:14;101765.50;;;21.17;66.30
61506;BME280;47366;51.916;4.574;2022-07-21T01:22:41;101760.28;;;21.14;65.63
61506;BME280;47366;51.916;4.574;2022-07-21T01:25:07;101762.63;;;21.19;66.86
61506;BME280;47366;51.916;4.574;2022-07-21T01:27:33;101762.75;;;21.17;65.61
61506;BME280;47366;51.916;4.574;2022-07-21T01:29:59;101766.09;;;21.21;65.94
61506;BME280;47366;51.916;4.574;2022-07-21T01:32:25;101768.41;;;21.16;66.67
61506;BME280;47366;51.916;4.574;2022-07-21T01:34:50;101753.34;;;21.20;65.99
61506;BME280;47366;51.916;4.574;2022-07-21T01:37:20;101742.84;;;21.04;66.12
61506;BME280;47366;51.916;4.574;2022-07-21T01:39:50;101745.31;;;20.97;67.37
61506;BME280;47366;51.916;4.574;2022-07-21T01:42:34;101760.63;;;20.90;67.10
61506;BME280;47366;51.916;4.574;2022-07-21T01:45:00;101755.69;;;20.84;66.73
61506;BME280;47366;51.916;4.574;2022-07-21T01:47:26;101758.31;;;20.86;67.37
61506;BME280;47366;51.916;4.574;2022-07-21T01:49:51;101754.88;;;20.93;66.74
61506;BME280;47366;51.916;4.574;2022-07-21T01:52:16;101735.72;;;20.92;66.79
61506;BME280;47366;51.916;4.574;2022-07-21T01:54:42;101744.84;;;20.92;67.10
61506;BME280;47366;51.916;4.574;2022-07-21T01:57:07;101748.19;;;20.96;66.83
61506;BME280;47366;51.916;4.574;2022-07-21T01:59:32;101737.59;;;20.91;68.54
61506;BME280;47366;51.916;4.574;2022-07-21T02:01:58;101734.81;;;20.82;67.67
61506;BME280;47366;51.916;4.574;2022-07-21T02:04:23;101733.66;;;20.84;68.44
61506;BME280;47366;51.916;4.574;2022-07-21T02:06:49;101739.63;;;20.89;67.02
61506;BME280;47366;51.916;4.574;2022-07-21T02:09:15;101736.41;;;20.84;66.93
61506;BME280;47366;51.916;4.574;2022-07-21T02:11:40;101739.91;;;20.86;67.80
61506;BME280;47366;51.916;4.574;2022-07-21T02:14:06;101750.91;;;20.86;67.07
61506;BME280;47366;51.916;4.574;2022-07-21T02:16:31;101752.38;;;20.90;67.40
61506;BME280;47366;51.916;4.574;2022-07-21T02:18:57;101746.56;;;20.84;68.21
61506;BME280;47366;51.916;4.574;2022-07-21T02:21:22;101746.25;;;20.77;68.89
61506;BME280;47366;51.916;4.574;2022-07-21T02:23:48;101745.09;;;20.79;68.11
61506;BME280;47366;51.916;4.574;2022-07-21T02:26:13;101740.88;;;20.75;67.71
61506;BME280;47366;51.916;4.574;2022-07-21T02:28:39;101731.00;;;20.73;68.64
61506;BME280;47366;51.916;4.574;2022-07-21T02:31:05;101734.00;;;20.60;68.13
61506;BME280;47366;51.916;4.574;2022-07-21T02:33:31;101729.69;;;20.67;68.15
61506;BME280;47366;51.916;4.574;2022-07-21T02:35:57;101721.88;;;20.72;68.03
61506;BME280;47366;51.916;4.574;2022-07-21T02:38:22;101725.22;;;20.76;68.77
61506;BME280;47366;51.916;4.574;2022-07-21T02:40:47;101720.59;;;20.76;67.78
61506;BME280;47366;51.916;4.574;2022-07-21T02:43:13;101723.75;;;20.72;69.12
61506;BME280;47366;51.916;4.574;2022-07-21T02:45:39;101718.47;;;20.59;70.30
61506;BME280;47366;51.916;4.574;2022-07-21T02:48:08;101708.97;;;20.42;70.39
61506;BME280;47366;51.916;4.574;2022-07-21T02:50:36;101718.81;;;20.45;69.17
61506;BME280;47366;51.916;4.574;2022-07-21T02:53:08;101724.31;;;20.45;69.90
61506;BME280;47366;51.916;4.574;2022-07-21T02:55:36;101719.38;;;20.39;69.89
61506;BME280;47366;51.916;4.574;2022-07-21T02:58:10;101719.78;;;20.34;72.07
61506;BME280;47366;51.916;4.574;2022-07-21T03:00:38;101719.19;;;20.30;70.44
61506;BME280;47366;51.916;4.574;2022-07-21T03:03:04;101709.19;;;20.29;71.23
61506;BME280;47366;51.916;4.574;2022-07-21T03:05:29;101712.75;;;20.20;71.32
61506;BME280;47366;51.916;4.574;2022-07-21T03:07:55;101715.69;;;20.28;70.25
61506;BME280;47366;51.916;4.574;2022-07-21T03:10:20;101703.34;;;20.23;70.92
61506;BME280;47366;51.916;4.574;2022-07-21T03:12:46;101703.94;;;20.17;70.47
61506;BME280;47366;51.916;4.574;2022-07-21T03:15:11;101707.25;;;20.20;70.42
61506;BME280;47366;51.916;4.574;2022-07-21T03:17:36;101722.34;;;20.26;71.06
61506;BME280;47366;51.916;4.574;2022-07-21T03:20:02;101723.69;;;20.31;70.66
61506;BME280;47366;51.916;4.574;2022-07-21T03:22:28;101713.28;;;20.35;70.11
61506;BME280;47366;51.916;4.574;2022-07-21T03:24:53;101715.34;;;20.43;69.93
61506;BME280;47366;51.916;4.574;2022-07-21T03:27:18;101709.97;;;20.41;71.71
61506;BME280;47366;51.916;4.574;2022-07-21T03:29:44;101703.00;;;20.37;69.75
61506;BME280;47366;51.916;4.574;2022-07-21T03:32:09;101704.28;;;20.33;70.51
61506;BME280;47366;51.916;4.574;2022-07-21T03:34:35;101707.75;;;20.35;71.42
61506;BME280;47366;51.916;4.574;2022-07-21T03:37:00;101719.38;;;20.39;70.36
61506;BME280;47366;51.916;4.574;2022-07-21T03:39:25;101706.91;;;20.34;71.43
61506;BME280;47366;51.916;4.574;2022-07-21T03:41:51;101709.06;;;20.31;71.74
61506;BME280;47366;51.916;4.574;2022-07-21T03:44:16;101714.09;;;20.26;71.82
61506;BME280;47366;51.916;4.574;2022-07-21T03:46:41;101721.47;;;20.25;71.95
61506;BME280;47366;51.916;4.574;2022-07-21T03:49:06;101722.63;;;20.23;72.30
61506;BME280;47366;51.916;4.574;2022-07-21T03:51:32;101720.09;;;20.10;72.12
61506;BME280;47366;51.916;4.574;2022-07-21T03:53:57;101723.38;;;20.04;71.91
61506;BME280;47366;51.916;4.574;2022-07-21T03:56:24;101717.22;;;19.90;74.07
61506;BME280;47366;51.916;4.574;2022-07-21T03:58:49;101719.69;;;19.93;73.00
61506;BME280;47366;51.916;4.574;2022-07-21T04:01:15;101714.94;;;19.96;72.36
61506;BME280;47366;51.916;4.574;2022-07-21T04:03:40;101723.03;;;19.97;72.98
61506;BME280;47366;51.916;4.574;2022-07-21T04:06:05;101725.66;;;19.99;72.77
61506;BME280;47366;51.916;4.574;2022-07-21T04:08:38;101726.53;;;19.99;71.97
61506;BME280;47366;51.916;4.574;2022-07-21T04:11:04;101727.53;;;19.98;72.97
61506;BME280;47366;51.916;4.574;2022-07-21T04:13:30;101728.41;;;19.99;73.44
61506;BME280;47366;51.916;4.574;2022-07-21T04:15:55;101723.94;;;19.98;73.17
61506;BME280;47366;51.916;4.574;2022-07-21T04:18:21;101732.75;;;20.01;72.42
61506;BME280;47366;51.916;4.574;2022-07-21T04:20:46;101728.59;;;20.07;72.71
61506;BME280;47366;51.916;4.574;2022-07-21T04:23:11;101730.63;;;20.05;71.81
61506;BME280;47366;51.916;4.574;2022-07-21T04:25:37;101729.28;;;19.99;72.94
61506;BME280;47366;51.916;4.574;2022-07-21T04:28:04;101736.25;;;20.03;72.63
61506;BME280;47366;51.916;4.574;2022-07-21T04:30:30;101732.50;;;20.04;72.18
61506;BME280;47366;51.916;4.574;2022-07-21T04:32:55;101729.03;;;20.02;72.92
61506;BME280;47366;51.916;4.574;2022-07-21T04:35:21;101732.25;;;20.07;72.44
61506;BME280;47366;51.916;4.574;2022-07-21T04:37:47;101732.25;;;20.07;72.79
61506;BME280;47366;51.916;4.574;2022-07-21T04:40:13;101732.81;;;20.11;71.57
61506;BME280;47366;51.916;4.574;2022-07-21T04:42:38;101737.81;;;20.17;71.83
61506;BME280;47366;51.916;4.574;2022-07-21T04:45:05;101730.69;;;20.14;71.94
61506;BME280;47366;51.916;4.574;2022-07-21T04:47:31;101722.16;;;20.18;71.10
61506;BME280;47366;51.916;4.574;2022-07-21T04:49:56;101728.13;;;20.23;72.85
61506;BME280;47366;51.916;4.574;2022-07-21T04:52:22;101732.41;;;20.15;72.01
61506;BME280;47366;51.916;4.574;2022-07-21T04:54:48;101723.72;;;20.10;71.38
61506;BME280;47366;51.916;4.574;2022-07-21T04:57:13;101732.53;;;20.14;72.18
61506;BME280;47366;51.916;4.574;2022-07-21T04:59:38;101732.50;;;20.04;72.41
61506;BME280;47366;51.916;4.574;2022-07-21T05:02:04;101737.59;;;20.09;72.96
61506;BME280;47366;51.916;4.574;2022-07-21T05:04:30;101734.59;;;20.12;72.79
61506;BME280;47366;51.916;4.574;2022-07-21T05:06:56;101740.69;;;20.15;72.14
61506;BME280;47366;51.916;4.574;2022-07-21T05:09:21;101729.88;;;20.03;72.77
61506;BME280;47366;51.916;4.574;2022-07-21T05:11:46;101737.13;;;20.04;72.59
61506;BME280;47366;51.916;4.574;2022-07-21T05:14:15;101731.50;;;20.05;72.19
61506;BME280;47366;51.916;4.574;2022-07-21T05:16:40;101739.81;;;20.15;72.45
61506;BME280;47366;51.916;4.574;2022-07-21T05:19:06;101728.81;;;20.15;72.71
61506;BME280;47366;51.916;4.574;2022-07-21T05:21:31;101735.06;;;20.17;72.15
61506;BME280;47366;51.916;4.574;2022-07-21T05:23:56;101728.53;;;20.18;72.49
61506;BME280;47366;51.916;4.574;2022-07-21T05:26:22;101723.59;;;20.12;72.44
61506;BME280;47366;51.916;4.574;2022-07-21T05:28:47;101721.53;;;20.14;73.50
61506;BME280;47366;51.916;4.574;2022-07-21T05:31:13;101724.91;;;20.18;72.11
61506;BME280;47366;51.916;4.574;2022-07-21T05:33:38;101721.34;;;20.06;73.44
61506;BME280;47366;51.916;4.574;2022-07-21T05:36:04;101721.63;;;20.03;73.00
61506;BME280;47366;51.916;4.574;2022-07-21T05:38:31;101724.56;;;20.11;72.50
61506;BME280;47366;51.916;4.574;2022-07-21T05:40:57;101730.75;;;20.03;73.39
61506;BME280;47366;51.916;4.574;2022-07-21T05:43:25;101725.25;;;20.03;73.34
61506;BME280;47366;51.916;4.574;2022-07-21T05:45:50;101730.75;;;20.03;72.53
61506;BME280;47366;51.916;4.574;2022-07-21T05:48:16;101716.38;;;20.00;72.52
61506;BME280;47366;51.916;4.574;2022-07-21T05:50:41;101728.00;;;20.03;73.23
61506;BME280;47366;51.916;4.574;2022-07-21T05:53:06;101722.09;;;20.08;72.98
61506;BME280;47366;51.916;4.574;2022-07-21T05:55:32;101726.06;;;20.15;73.98
61506;BME280;47366;51.916;4.574;2022-07-21T05:57:57;101722.22;;;20.06;72.85
61506;BME280;47366;51.916;4.574;2022-07-21T06:00:22;101727.59;;;20.08;73.86
61506;BME280;47366;51.916;4.574;2022-07-21T06:02:48;101730.47;;;20.06;73.42
61506;BME280;47366;51.916;4.574;2022-07-21T06:05:13;101729.09;;;20.12;72.65
61506;BME280;47366;51.916;4.574;2022-07-21T06:07:40;101728.13;;;20.02;74.47
61506;BME280;47366;51.916;4.574;2022-07-21T06:10:06;101729.75;;;20.04;73.32
61506;BME280;47366;51.916;4.574;2022-07-21T06:12:32;101730.47;;;20.06;73.87
61506;BME280;47366;51.916;4.574;2022-07-21T06:14:58;101745.03;;;20.18;72.67
61506;BME280;47366;51.916;4.574;2022-07-21T06:17:23;101743.03;;;20.20;73.50
61506;BME280;47366;51.916;4.574;2022-07-21T06:19:48;101743.47;;;20.25;72.83
61506;BME280;47366;51.916;4.574;2022-07-21T06:22:14;101737.84;;;20.27;73.00
61506;BME280;47366;51.916;4.574;2022-07-21T06:24:39;101737.00;;;20.26;73.41
61506;BME280;47366;51.916;4.574;2022-07-21T06:27:05;101748.72;;;20.28;72.99
61506;BME280;47366;51.916;4.574;2022-07-21T06:29:30;101732.06;;;20.30;72.67
61506;BME280;47366;51.916;4.574;2022-07-21T06:31:56;101751.94;;;20.33;72.94
61506;BME280;47366;51.916;4.574;2022-07-21T06:34:21;101739.25;;;20.21;73.86
61506;BME280;47366;51.916;4.574;2022-07-21T06:36:46;101746.78;;;20.19;73.59
61506;BME280;47366;51.916;4.574;2022-07-21T06:39:12;101745.44;;;20.13;72.71
61506;BME280;47366;51.916;4.574;2022-07-21T06:41:38;101746.06;;;20.17;73.66
61506;BME280;47366;51.916;4.574;2022-07-21T06:44:04;101742.84;;;20.12;73.18
61506;BME280;47366;51.916;4.574;2022-07-21T06:46:34;101736.19;;;20.14;73.23
61506;BME280;47366;51.916;4.574;2022-07-21T06:48:59;101749.00;;;20.25;72.99
61506;BME280;47366;51.916;4.574;2022-07-21T06:51:25;101748.41;;;20.22;73.31
61506;BME280;47366;51.916;4.574;2022-07-21T06:53:50;101755.09;;;20.29;72.59
61506;BME280;47366;51.916;4.574;2022-07-21T06:56:19;101757.69;;;20.30;73.39
61506;BME280;47366;51.916;4.574;2022-07-21T06:58:45;101754.78;;;20.22;73.53
61506;BME280;47366;51.916;4.574;2022-07-21T07:01:10;101760.06;;;20.14;74.48
61506;BME280;47366;51.916;4.574;2022-07-21T07:03:37;101764.63;;;20.04;74.57
61506;BME280;47366;51.916;4.574;2022-07-21T07:06:04;101770.41;;;20.01;74.87
61506;BME280;47366;51.916;4.574;2022-07-21T07:08:29;101775.16;;;19.99;73.75
61506;BME280;47366;51.916;4.574;2022-07-21T07:10:55;101784.16;;;20.01;73.60
61506;BME280;47366;51.916;4.574;2022-07-21T07:13:20;101774.97;;;19.90;74.17
61506;BME280;47366;51.916;4.574;2022-07-21T07:15:46;101779.91;;;19.97;74.16
61506;BME280;47366;51.916;4.574;2022-07-21T07:18:11;101784.94;;;19.91;74.79
61506;BME280;47366;51.916;4.574;2022-07-21T07:20:36;101781.59;;;19.88;74.50
61506;BME280;47366;51.916;4.574;2022-07-21T07:23:03;101792.47;;;19.89;74.11
61506;BME280;47366;51.916;4.574;2022-07-21T07:25:28;101786.44;;;19.96;74.02
61506;BME280;47366;51.916;4.574;2022-07-21T07:27:54;101799.06;;;19.98;74.56
61506;BME280;47366;51.916;4.574;2022-07-21T07:30:21;101796.97;;;19.90;74.62
61506;BME280;47366;51.916;4.574;2022-07-21T07:32:46;101792.09;;;19.83;74.38
61506;BME280;47366;51.916;4.574;2022-07-21T07:35:15;101797.38;;;19.86;74.31
61506;BME280;47366;51.916;4.574;2022-07-21T07:37:44;101789.63;;;19.80;74.54
61506;BME280;47366;51.916;4.574;2022-07-21T07:40:13;101791.63;;;19.78;74.84
61506;BME280;47366;51.916;4.574;2022-07-21T07:42:39;101802.72;;;19.87;74.78
61506;BME280;47366;51.916;4.574;2022-07-21T07:45:06;101788.50;;;19.82;75.83
61506;BME280;47366;51.916;4.574;2022-07-21T07:47:32;101788.00;;;19.77;74.53
61506;BME280;47366;51.916;4.574;2022-07-21T07:49:58;101794.63;;;19.86;74.64
61506;BME280;47366;51.916;4.574;2022-07-21T07:52:23;101795.34;;;19.88;74.16
61506;BME280;47366;51.916;4.574;2022-07-21T07:54:49;101798.69;;;19.91;75.26
61506;BME280;47366;51.916;4.574;2022-07-21T07:57:14;101796.81;;;19.92;74.79
61506;BME280;47366;51.916;4.574;2022-07-21T07:59:39;101791.97;;;19.84;75.26
61506;BME280;47366;51.916;4.574;2022-07-21T08:02:05;101792.25;;;19.81;75.65
61506;BME280;47366;51.916;4.574;2022-07-21T08:04:30;101805.13;;;19.81;75.87
61506;BME280;47366;51.916;4.574;2022-07-21T08:06:56;101788.13;;;19.76;74.94
61506;BME280;47366;51.916;4.574;2022-07-21T08:09:21;101788.88;;;19.78;74.73
61506;BME280;47366;51.916;4.574;2022-07-21T08:11:47;101791.38;;;19.81;74.31
61506;BME280;47366;51.916;4.574;2022-07-21T08:14:14;101793.31;;;19.90;74.47
61506;BME280;47366;51.916;4.574;2022-07-21T08:16:40;101796.56;;;19.95;74.92
61506;BME280;47366;51.916;4.574;2022-07-21T08:19:05;101791.06;;;19.95;74.88
61506;BME280;47366;51.916;4.574;2022-07-21T08:21:30;101797.56;;;19.94;75.35
61506;BME280;47366;51.916;4.574;2022-07-21T08:23:57;101791.31;;;19.92;75.56
61506;BME280;47366;51.916;4.574;2022-07-21T08:26:23;101798.97;;;19.88;74.88
61506;BME280;47366;51.916;4.574;2022-07-21T08:28:49;101791.97;;;19.84;75.53
61506;BME280;47366;51.916;4.574;2022-07-21T08:31:14;101795.81;;;19.93;76.06
61506;BME280;47366;51.916;4.574;2022-07-21T08:33:40;101798.44;;;19.94;74.71
61506;BME280;47366;51.916;4.574;2022-07-21T08:36:05;101799.56;;;19.92;75.34
61506;BME280;47366;51.916;4.574;2022-07-21T08:38:31;101802.38;;;19.81;75.74
61506;BME280;47366;51.916;4.574;2022-07-21T08:40:57;101817.59;;;19.85;76.45
61506;BME280;47366;51.916;4.574;2022-07-21T08:43:24;101815.03;;;19.72;76.82
61506;BME280;47366;51.916;4.574;2022-07-21T08:45:49;101806.66;;;19.62;75.96
61506;BME280;47366;51.916;4.574;2022-07-21T08:48:17;101818.53;;;19.74;75.10
61506;BME280;47366;51.916;4.574;2022-07-21T08:50:44;101824.25;;;19.71;76.02
61506;BME280;47366;51.916;4.574;2022-07-21T08:53:09;101824.03;;;19.74;75.81
61506;BME280;47366;51.916;4.574;2022-07-21T08:55:37;101813.66;;;19.66;75.99
61506;BME280;47366;51.916;4.574;2022-07-21T08:58:07;101823.38;;;19.59;76.12
61506;BME280;47366;51.916;4.574;2022-07-21T09:00:35;101830.25;;;19.65;76.07
61506;BME280;47366;51.916;4.574;2022-07-21T09:03:33;101831.91;;;19.56;76.97
61506;BME280;47366;51.916;4.574;2022-07-21T09:06:11;101825.41;;;19.57;76.62
61506;BME280;47366;51.916;4.574;2022-07-21T09:08:40;101829.91;;;19.58;76.16
61506;BME280;47366;51.916;4.574;2022-07-21T09:13:47;101841.75;;;19.59;75.75
61506;BME280;47366;51.916;4.574;2022-07-21T09:16:32;101839.19;;;19.46;76.22
61506;BME280;47366;51.916;4.574;2022-07-21T09:18:58;101834.44;;;19.48;75.80
61506;BME280;47366;51.916;4.574;2022-07-21T09:21:23;101844.78;;;19.56;75.94
61506;BME280;47366;51.916;4.574;2022-07-21T09:23:49;101847.41;;;19.57;76.34
61506;BME280;47366;51.916;4.574;2022-07-21T09:26:14;101841.00;;;19.57;75.45
61506;BME280;47366;51.916;4.574;2022-07-21T09:28:41;101846.03;;;19.51;75.41
61506;BME280;47366;51.916;4.574;2022-07-21T09:31:11;101847.41;;;19.57;75.68
61506;BME280;47366;51.916;4.574;2022-07-21T09:33:44;101846.00;;;19.63;76.01
61506;BME280;47366;51.916;4.574;2022-07-21T09:36:16;101836.16;;;19.71;74.90
61506;BME280;47366;51.916;4.574;2022-07-21T09:41:15;101850.84;;;19.93;75.10
61506;BME280;47366;51.916;4.574;2022-07-21T09:43:46;101849.22;;;19.90;75.69
61506;BME280;47366;51.916;4.574;2022-07-21T09:46:20;101859.97;;;19.82;75.40
61506;BME280;47366;51.916;4.574;2022-07-21T09:48:47;101858.38;;;19.68;75.30
61506;BME280;47366;51.916;4.574;2022-07-21T09:54:02;101868.41;;;19.69;75.27
61506;BME280;47366;51.916;4.574;2022-07-21T09:56:30;101871.38;;;19.66;75.24
61506;BME280;47366;51.916;4.574;2022-07-21T09:58:57;101865.38;;;19.61;75.29
61506;BME280;47366;51.916;4.574;2022-07-21T10:01:23;101862.41;;;19.53;76.10
61506;BME280;47366;51.916;4.574;2022-07-21T10:03:50;101868.28;;;19.48;77.16
61506;BME280;47366;51.916;4.574;2022-07-21T10:06:18;101871.66;;;19.41;76.25
61506;BME280;47366;51.916;4.574;2022-07-21T10:08:44;101888.91;;;19.43;77.11
61506;BME280;47366;51.916;4.574;2022-07-21T10:11:10;101888.38;;;19.38;77.31
61506;BME280;47366;51.916;4.574;2022-07-21T10:13:37;101881.53;;;19.32;77.10
61506;BME280;47366;51.916;4.574;2022-07-21T10:16:05;101893.03;;;19.26;77.15
61506;BME280;47366;51.916;4.574;2022-07-21T10:18:38;101886.44;;;19.28;77.18
61506;BME280;47366;51.916;4.574;2022-07-21T10:21:14;101887.28;;;19.29;78.39
61506;BME280;47366;51.916;4.574;2022-07-21T10:23:42;101888.16;;;19.29;77.19
61506;BME280;47366;51.916;4.574;2022-07-21T10:26:09;101892.25;;;19.35;77.19
61506;BME280;47366;51.916;4.574;2022-07-21T10:28:36;101882.56;;;19.31;76.71
61506;BME280;47366;51.916;4.574;2022-07-21T10:31:24;101878.03;;;19.30;76.95
61506;BME280;47366;51.916;4.574;2022-07-21T10:33:53;101885.78;;;19.36;76.55
61506;BME280;47366;51.916;4.574;2022-07-21T10:41:57;101890.75;;;19.42;77.37
61506;BME280;47366;51.916;4.574;2022-07-21T10:47:03;101887.03;;;19.55;77.92
61506;BME280;47366;51.916;4.574;2022-07-21T10:57:47;101910.38;;;19.49;78.27
61506;BME280;47366;51.916;4.574;2022-07-21T11:02:48;101899.00;;;19.53;78.20
61506;BME280;47366;51.916;4.574;2022-07-21T11:05:13;101907.50;;;19.50;78.14
61506;BME280;47366;51.916;4.574;2022-07-21T11:08:10;101914.88;;;19.50;78.18
61506;BME280;47366;51.916;4.574;2022-07-21T11:10:49;101910.25;;;19.50;78.05
61506;BME280;47366;51.916;4.574;2022-07-21T11:13:18;101920.38;;;19.50;77.00
61506;BME280;47366;51.916;4.574;2022-07-21T11:18:17;101920.00;;;19.43;77.36
61506;BME280;47366;51.916;4.574;2022-07-21T11:20:43;101930.72;;;19.46;78.02
61506;BME280;47366;51.916;4.574;2022-07-21T11:23:09;101929.00;;;19.45;77.96
61506;BME280;47366;51.916;4.574;2022-07-21T11:25:34;101942.22;;;19.51;78.56
61506;BME280;47366;51.916;4.574;2022-07-21T11:27:59;101937.59;;;19.52;78.37
61506;BME280;47366;51.916;4.574;2022-07-21T11:30:25;101927.25;;;19.44;78.36
61506;BME280;47366;51.916;4.574;2022-07-21T11:32:51;101935.75;;;19.41;79.16
61506;BME280;47366;51.916;4.574;2022-07-21T11:35:18;101930.72;;;19.35;79.36
61506;BME280;47366;51.916;4.574;2022-07-21T11:37:45;101940.00;;;19.34;78.64
61506;BME280;47366;51.916;4.574;2022-07-21T11:40:13;101940.47;;;19.39;78.29
61506;BME280;47366;51.916;4.574;2022-07-21T11:42:40;101940.22;;;19.42;77.75
61506;BME280;47366;51.916;4.574;2022-07-21T11:45:07;101945.09;;;19.39;78.27
61506;BME280;47366;51.916;4.574;2022-07-21T11:47:33;101935.25;;;19.36;77.65
61506;BME280;47366;51.916;4.574;2022-07-21T11:50:01;101950.09;;;19.34;78.97
61506;BME280;47366;51.916;4.574;2022-07-21T11:52:33;101949.97;;;19.35;79.15
61506;BME280;47366;51.916;4.574;2022-07-21T11:55:00;101942.72;;;19.23;79.08
61506;BME280;47366;51.916;4.574;2022-07-21T11:57:27;101953.22;;;19.29;79.59
61506;BME280;47366;51.916;4.574;2022-07-21T11:59:56;101949.34;;;19.20;78.95
61506;BME280;47366;51.916;4.574;2022-07-21T12:02:26;101953.09;;;19.19;80.14
61506;BME280;47366;51.916;4.574;2022-07-21T12:04:57;101945.34;;;19.13;80.58
61506;BME280;47366;51.916;4.574;2022-07-21T12:07:29;101944.94;;;19.06;79.62
61506;BME280;47366;51.916;4.574;2022-07-21T12:12:36;101955.47;;;19.13;79.72
61506;BME280;47366;51.916;4.574;2022-07-21T12:18:01;101959.22;;;19.12;80.36
61506;BME280;47366;51.916;4.574;2022-07-21T12:20:41;101964.94;;;19.08;80.38
61506;BME280;47366;51.916;4.574;2022-07-21T12:23:22;101962.19;;;19.08;79.91
61506;BME280;47366;51.916;4.574;2022-07-21T12:25:49;101955.69;;;18.98;80.34
61506;BME280;47366;51.916;4.574;2022-07-21T12:28:14;101962.91;;;18.99;80.19
61506;BME280;47366;51.916;4.574;2022-07-21T12:30:49;101966.06;;;19.06;80.04
61506;BME280;47366;51.916;4.574;2022-07-21T12:33:21;101971.28;;;19.09;80.78
61506;BME280;47366;51.916;4.574;2022-07-21T12:36:06;101973.16;;;19.08;80.92
61506;BME280;47366;51.916;4.574;2022-07-21T12:38:41;101967.97;;;19.17;79.79
61506;BME280;47366;51.916;4.574;2022-07-21T12:41:09;101966.94;;;19.18;79.60
61506;BME280;47366;51.916;4.574;2022-07-21T12:43:35;101952.09;;;19.20;80.91
61506;BME280;47366;51.916;4.574;2022-07-21T12:46:04;101968.97;;;19.27;79.16
61506;BME280;47366;51.916;4.574;2022-07-21T12:48:35;101975.97;;;19.31;79.83
61506;BME280;47366;51.916;4.574;2022-07-21T12:53:33;101975.72;;;19.34;81.09
61506;BME280;47366;51.916;4.574;2022-07-21T12:56:00;101978.81;;;19.29;80.10
61506;BME280;47366;51.916;4.574;2022-07-21T12:58:26;101981.94;;;19.25;79.45
61506;BME280;47366;51.916;4.574;2022-07-21T13:00:51;101975.84;;;19.21;80.48
61506;BME280;47366;51.916;4.574;2022-07-21T13:03:17;101979.94;;;19.16;79.43
61506;BME280;47366;51.916;4.574;2022-07-21T13:05:42;101985.81;;;19.22;80.07
61506;BME280;47366;51.916;4.574;2022-07-21T13:08:08;101980.94;;;19.15;80.86
61506;BME280;47366;51.916;4.574;2022-07-21T13:10:33;101985.66;;;19.13;80.28
61506;BME280;47366;51.916;4.574;2022-07-21T13:12:58;102000.91;;;19.17;80.03
61506;BME280;47366;51.916;4.574;2022-07-21T13:15:24;101999.75;;;19.08;80.18
61506;BME280;47366;51.916;4.574;2022-07-21T13:17:49;101992.66;;;19.05;80.67
61506;BME280;47366;51.916;4.574;2022-07-21T13:20:15;102001.91;;;19.04;80.75
61506;BME280;47366;51.916;4.574;2022-07-21T13:22:41;102007.13;;;19.07;80.90
61506;BME280;47366;51.916;4.574;2022-07-21T13:25:07;101999.16;;;19.04;79.70
61506;BME280;47366;51.916;4.574;2022-07-21T13:27:33;102005.72;;;19.02;81.11